sensor_id;sensor_type;location;lat;lon;timestamp;pressure;altitude;pressure_sealevel;temperature;humidity
10978;BME280;5542;48.272;10.794;2023-05-03T00:02:01;96386.28;;;8.01;84.03
10978;BME280;5542;48.272;10.794;2023-05-03T00:04:29;96389.53;;;8.03;83.85
10978;BME280;5542;48.272;10.794;2023-05-03T00:06:56;96390.72;;;8.00;83.88
10978;BME280;5542;48.272;10.794;2023-05-03T00:09:23;96392.16;;;8.03;83.98
10978;BME280;5542;48.272;10.794;2023-05-03T00:11:51;96391.16;;;8.04;83.78
10978;BME280;5542;48.272;10.794;2023-05-03T00:14:18;96395.97;;;8.00;83.10
10978;BME280;5542;48.272;10.794;2023-05-03T00:16:44;96405.63;;;7.93;82.81
10978;BME280;5542;48.272;10.794;2023-05-03T00:19:11;96396.91;;;7.86;83.29
10978;BME280;5542;48.272;10.794;2023-05-03T00:21:38;96392.47;;;7.80;83.44
10978;BME280;5542;48.272;10.794;2023-05-03T00:24:05;96396.25;;;7.77;83.68
10978;BME280;5542;48.272;10.794;2023-05-03T00:26:31;96395.25;;;7.78;84.02
10978;BME280;5542;48.272;10.794;2023-05-03T00:28:59;96394.88;;;7.81;84.32
10978;BME280;5542;48.272;10.794;2023-05-03T00:31:26;96391.44;;;7.81;84.47
10978;BME280;5542;48.272;10.794;2023-05-03T00:33:53;96390.66;;;7.80;84.36
10978;BME280;5542;48.272;10.794;2023-05-03T00:36:20;96392.84;;;7.77;84.18
10978;BME280;5542;48.272;10.794;2023-05-03T00:38:46;96386.78;;;7.76;84.12
10978;BME280;5542;48.272;10.794;2023-05-03T00:41:13;96388.03;;;7.80;83.94
10978;BME280;5542;48.272;10.794;2023-05-03T00:43:40;96383.78;;;7.79;83.47
10978;BME280;5542;48.272;10.794;2023-05-03T00:46:08;96376.53;;;7.75;83.69
10978;BME280;5542;48.272;10.794;2023-05-03T00:48:36;96367.66;;;7.76;83.47
10978;BME280;5542;48.272;10.794;2023-05-03T00:51:04;96366.22;;;7.73;83.58
10978;BME280;5542;48.272;10.794;2023-05-03T00:53:32;96371.22;;;7.68;83.01
10978;BME280;5542;48.272;10.794;2023-05-03T00:55:59;96370.84;;;7.64;82.32
10978;BME280;5542;48.272;10.794;2023-05-03T00:58:26;96377.84;;;7.57;82.20
10978;BME280;5542;48.272;10.794;2023-05-03T01:00:53;96372.38;;;7.52;82.94
10978;BME280;5542;48.272;10.794;2023-05-03T01:03:21;96370.75;;;7.51;82.60
10978;BME280;5542;48.272;10.794;2023-05-03T01:06:00;96371.72;;;7.43;82.88
10978;BME280;5542;48.272;10.794;2023-05-03T01:08:34;96371.25;;;7.33;83.57
10978;BME280;5542;48.272;10.794;2023-05-03T01:11:07;96370.66;;;7.31;84.09
10978;BME280;5542;48.272;10.794;2023-05-03T01:13:43;96372.81;;;7.28;83.39
10978;BME280;5542;48.272;10.794;2023-05-03T01:16:18;96367.53;;;7.21;83.46
10978;BME280;5542;48.272;10.794;2023-05-03T01:18:48;96369.31;;;7.14;83.83
10978;BME280;5542;48.272;10.794;2023-05-03T01:21:17;96365.25;;;7.11;84.09
10978;BME280;5542;48.272;10.794;2023-05-03T01:23:54;96358.97;;;7.06;83.94
10978;BME280;5542;48.272;10.794;2023-05-03T01:26:24;96362.00;;;7.03;83.37
10978;BME280;5542;48.272;10.794;2023-05-03T01:28:52;96360.53;;;6.93;84.08
10978;BME280;5542;48.272;10.794;2023-05-03T01:31:21;96356.66;;;6.89;84.54
10978;BME280;5542;48.272;10.794;2023-05-03T01:33:58;96359.66;;;6.86;84.49
10978;BME280;5542;48.272;10.794;2023-05-03T01:36:30;96360.66;;;6.85;84.43
10978;BME280;5542;48.272;10.794;2023-05-03T01:38:59;96363.78;;;6.74;84.01
10978;BME280;5542;48.272;10.794;2023-05-03T01:41:31;96364.91;;;6.65;84.19
10978;BME280;5542;48.272;10.794;2023-05-03T01:43:59;96368.66;;;6.56;84.51
10978;BME280;5542;48.272;10.794;2023-05-03T01:46:26;96365.78;;;6.51;85.02
10978;BME280;5542;48.272;10.794;2023-05-03T01:48:53;96360.00;;;6.55;85.16
10978;BME280;5542;48.272;10.794;2023-05-03T01:51:20;96367.00;;;6.55;85.16
10978;BME280;5542;48.272;10.794;2023-05-03T01:53:46;96360.81;;;6.56;85.02
10978;BME280;5542;48.272;10.794;2023-05-03T01:56:13;96363.59;;;6.54;84.43
10978;BME280;5542;48.272;10.794;2023-05-03T01:58:41;96367.19;;;6.53;84.25
10978;BME280;5542;48.272;10.794;2023-05-03T02:01:08;96366.59;;;6.51;84.54
10978;BME280;5542;48.272;10.794;2023-05-03T02:03:35;96370.00;;;6.52;84.68
10978;BME280;5542;48.272;10.794;2023-05-03T02:06:02;96363.59;;;6.54;84.72
10978;BME280;5542;48.272;10.794;2023-05-03T02:08:29;96366.19;;;6.54;84.48
10978;BME280;5542;48.272;10.794;2023-05-03T02:10:55;96365.78;;;6.51;84.05
10978;BME280;5542;48.272;10.794;2023-05-03T02:13:22;96375.16;;;6.45;83.90
10978;BME280;5542;48.272;10.794;2023-05-03T02:15:50;96376.09;;;6.37;83.58
10978;BME280;5542;48.272;10.794;2023-05-03T02:18:17;96377.47;;;6.33;83.22
10978;BME280;5542;48.272;10.794;2023-05-03T02:20:45;96378.38;;;6.26;83.34
10978;BME280;5542;48.272;10.794;2023-05-03T02:23:11;96372.53;;;6.24;83.91
10978;BME280;5542;48.272;10.794;2023-05-03T02:25:38;96373.34;;;6.24;84.21
10978;BME280;5542;48.272;10.794;2023-05-03T02:28:05;96367.31;;;6.24;84.42
10978;BME280;5542;48.272;10.794;2023-05-03T02:30:33;96382.63;;;6.27;84.38
10978;BME280;5542;48.272;10.794;2023-05-03T02:33:01;96368.38;;;6.29;84.56
10978;BME280;5542;48.272;10.794;2023-05-03T02:35:28;96371.59;;;6.31;84.60
10978;BME280;5542;48.272;10.794;2023-05-03T02:37:55;96377.00;;;6.30;84.41
10978;BME280;5542;48.272;10.794;2023-05-03T02:40:22;96372.19;;;6.27;84.30
10978;BME280;5542;48.272;10.794;2023-05-03T02:42:49;96376.97;;;6.23;84.72
10978;BME280;5542;48.272;10.794;2023-05-03T02:45:16;96373.34;;;6.24;85.10
10978;BME280;5542;48.272;10.794;2023-05-03T02:47:42;96369.38;;;6.28;85.46
10978;BME280;5542;48.272;10.794;2023-05-03T02:50:11;96375.84;;;6.32;85.87
10978;BME280;5542;48.272;10.794;2023-05-03T02:52:37;96375.28;;;6.37;86.01
10978;BME280;5542;48.272;10.794;2023-05-03T02:55:05;96367.06;;;6.40;86.75
10978;BME280;5542;48.272;10.794;2023-05-03T02:57:32;96370.38;;;6.49;87.66
10978;BME280;5542;48.272;10.794;2023-05-03T02:59:58;96378.53;;;6.60;89.99
10978;BME280;5542;48.272;10.794;2023-05-03T03:02:25;96376.09;;;6.59;91.46
10978;BME280;5542;48.272;10.794;2023-05-03T03:04:51;96375.25;;;6.52;93.20
10978;BME280;5542;48.272;10.794;2023-05-03T03:07:20;96372.22;;;6.55;94.16
10978;BME280;5542;48.272;10.794;2023-05-03T03:09:46;96373.09;;;6.40;95.78
10978;BME280;5542;48.272;10.794;2023-05-03T03:12:13;96375.03;;;6.32;96.24
10978;BME280;5542;48.272;10.794;2023-05-03T03:14:40;96377.66;;;6.32;97.01
10978;BME280;5542;48.272;10.794;2023-05-03T03:17:09;96372.00;;;6.28;97.73
10978;BME280;5542;48.272;10.794;2023-05-03T03:19:36;96380.19;;;6.25;98.60
10978;BME280;5542;48.272;10.794;2023-05-03T03:22:02;96374.41;;;6.30;99.22
10978;BME280;5542;48.272;10.794;2023-05-03T03:24:34;96372.09;;;6.20;100.00
10978;BME280;5542;48.272;10.794;2023-05-03T03:27:00;96378.94;;;6.21;100.00
10978;BME280;5542;48.272;10.794;2023-05-03T03:29:28;96380.56;;;6.22;100.00
10978;BME280;5542;48.272;10.794;2023-05-03T03:31:55;96376.97;;;6.23;100.00
10978;BME280;5542;48.272;10.794;2023-05-03T03:34:21;96373.00;;;6.27;100.00
10978;BME280;5542;48.272;10.794;2023-05-03T03:36:48;96376.22;;;6.29;100.00
10978;BME280;5542;48.272;10.794;2023-05-03T03:39:15;96380.19;;;6.25;100.00
10978;BME280;5542;48.272;10.794;2023-05-03T03:41:43;96375.41;;;6.29;100.00
10978;BME280;5542;48.272;10.794;2023-05-03T03:44:09;96377.16;;;6.43;100.00
10978;BME280;5542;48.272;10.794;2023-05-03T03:46:36;96375.91;;;6.39;100.00
10978;BME280;5542;48.272;10.794;2023-05-03T03:49:02;96378.47;;;6.32;100.00
10978;BME280;5542;48.272;10.794;2023-05-03T03:51:29;96390.78;;;6.38;100.00
10978;BME280;5542;48.272;10.794;2023-05-03T03:53:56;96385.81;;;6.44;100.00
10978;BME280;5542;48.272;10.794;2023-05-03T03:56:22;96387.25;;;6.46;100.00
10978;BME280;5542;48.272;10.794;2023-05-03T03:58:51;96387.00;;;6.41;100.00
10978;BME280;5542;48.272;10.794;2023-05-03T04:01:17;96392.59;;;6.38;100.00
10978;BME280;5542;48.272;10.794;2023-05-03T04:03:44;96397.81;;;6.38;100.00
10978;BME280;5542;48.272;10.794;2023-05-03T04:06:11;96391.84;;;6.44;100.00
10978;BME280;5542;48.272;10.794;2023-05-03T04:08:38;96395.34;;;6.51;100.00
10978;BME280;5542;48.272;10.794;2023-05-03T04:11:09;96397.09;;;6.65;100.00
10978;BME280;5542;48.272;10.794;2023-05-03T04:13:36;96398.88;;;6.65;100.00
10978;BME280;5542;48.272;10.794;2023-05-03T04:16:05;96414.88;;;6.55;100.00
10978;BME280;5542;48.272;10.794;2023-05-03T04:18:32;96400.97;;;6.55;100.00
10978;BME280;5542;48.272;10.794;2023-05-03T04:20:58;96408.66;;;6.56;100.00
10978;BME280;5542;48.272;10.794;2023-05-03T04:23:25;96407.22;;;6.54;100.00
10978;BME280;5542;48.272;10.794;2023-05-03T04:25:51;96411.75;;;6.66;100.00
10978;BME280;5542;48.272;10.794;2023-05-03T04:28:18;96413.81;;;6.71;100.00
10978;BME280;5542;48.272;10.794;2023-05-03T04:30:45;96413.56;;;6.66;100.00
10978;BME280;5542;48.272;10.794;2023-05-03T04:33:14;96418.34;;;6.62;100.00
10978;BME280;5542;48.272;10.794;2023-05-03T04:35:41;96411.25;;;6.56;100.00
10978;BME280;5542;48.272;10.794;2023-05-03T04:38:08;96409.81;;;6.54;100.00
10978;BME280;5542;48.272;10.794;2023-05-03T04:40:35;96411.44;;;6.55;100.00
10978;BME280;5542;48.272;10.794;2023-05-03T04:43:01;96422.09;;;6.53;100.00
10978;BME280;5542;48.272;10.794;2023-05-03T04:45:28;96418.31;;;6.56;100.00
10978;BME280;5542;48.272;10.794;2023-05-03T04:47:55;96424.84;;;6.66;100.00
10978;BME280;5542;48.272;10.794;2023-05-03T04:50:23;96426.69;;;6.73;100.00
10978;BME280;5542;48.272;10.794;2023-05-03T04:52:50;96426.38;;;6.82;100.00
10978;BME280;5542;48.272;10.794;2023-05-03T04:55:17;96424.03;;;6.66;100.00
10978;BME280;5542;48.272;10.794;2023-05-03T04:57:43;96431.97;;;6.58;100.00
10978;BME280;5542;48.272;10.794;2023-05-03T05:00:11;96431.47;;;6.69;100.00
10978;BME280;5542;48.272;10.794;2023-05-03T05:02:38;96428.44;;;6.87;100.00
10978;BME280;5542;48.272;10.794;2023-05-03T05:05:06;96432.75;;;6.95;100.00
10978;BME280;5542;48.272;10.794;2023-05-03T05:07:35;96431.84;;;6.87;100.00
10978;BME280;5542;48.272;10.794;2023-05-03T05:10:01;96431.59;;;6.82;100.00
10978;BME280;5542;48.272;10.794;2023-05-03T05:12:28;96428.56;;;7.00;100.00
10978;BME280;5542;48.272;10.794;2023-05-03T05:14:55;96428.44;;;6.87;100.00
10978;BME280;5542;48.272;10.794;2023-05-03T05:17:22;96427.63;;;6.86;100.00
10978;BME280;5542;48.272;10.794;2023-05-03T05:19:50;96442.25;;;6.81;100.00
10978;BME280;5542;48.272;10.794;2023-05-03T05:22:18;96441.16;;;6.90;100.00
10978;BME280;5542;48.272;10.794;2023-05-03T05:24:46;96448.44;;;6.95;100.00
10978;BME280;5542;48.272;10.794;2023-05-03T05:27:13;96446.41;;;6.97;100.00
10978;BME280;5542;48.272;10.794;2023-05-03T05:29:39;96447.47;;;7.02;100.00
10978;BME280;5542;48.272;10.794;2023-05-03T05:32:06;96451.97;;;7.08;100.00
10978;BME280;5542;48.272;10.794;2023-05-03T05:34:33;96449.84;;;6.97;100.00
10978;BME280;5542;48.272;10.794;2023-05-03T05:36:59;96456.75;;;6.83;100.00
10978;BME280;5542;48.272;10.794;2023-05-03T05:39:26;96459.13;;;7.00;100.00
10978;BME280;5542;48.272;10.794;2023-05-03T05:41:54;96462.75;;;6.99;100.00
10978;BME280;5542;48.272;10.794;2023-05-03T05:44:21;96460.63;;;7.09;100.00
10978;BME280;5542;48.272;10.794;2023-05-03T05:46:48;96466.16;;;6.99;100.00
10978;BME280;5542;48.272;10.794;2023-05-03T05:49:15;96462.25;;;7.10;100.00
10978;BME280;5542;48.272;10.794;2023-05-03T05:51:41;96462.56;;;7.22;100.00
10978;BME280;5542;48.272;10.794;2023-05-03T05:54:09;96466.34;;;7.19;100.00
10978;BME280;5542;48.272;10.794;2023-05-03T05:56:36;96463.88;;;7.39;100.00
10978;BME280;5542;48.272;10.794;2023-05-03T05:59:04;96462.59;;;7.28;100.00
10978;BME280;5542;48.272;10.794;2023-05-03T06:01:31;96463.50;;;7.42;100.00
10978;BME280;5542;48.272;10.794;2023-05-03T06:03:57;96464.22;;;7.29;100.00
10978;BME280;5542;48.272;10.794;2023-05-03T06:06:24;96462.16;;;7.25;100.00
10978;BME280;5542;48.272;10.794;2023-05-03T06:08:51;96467.81;;;7.28;100.00
10978;BME280;5542;48.272;10.794;2023-05-03T06:11:18;96468.53;;;7.43;100.00
10978;BME280;5542;48.272;10.794;2023-05-03T06:13:45;96465.56;;;7.25;100.00
10978;BME280;5542;48.272;10.794;2023-05-03T06:16:13;96464.28;;;7.36;100.00
10978;BME280;5542;48.272;10.794;2023-05-03T06:18:40;96461.59;;;7.29;100.00
10978;BME280;5542;48.272;10.794;2023-05-03T06:21:07;96464.13;;;7.44;100.00
10978;BME280;5542;48.272;10.794;2023-05-03T06:23:34;96465.09;;;7.36;100.00
10978;BME280;5542;48.272;10.794;2023-05-03T06:26:02;96465.41;;;7.27;100.00
10978;BME280;5542;48.272;10.794;2023-05-03T06:28:28;96460.31;;;7.47;100.00
10978;BME280;5542;48.272;10.794;2023-05-03T06:30:55;96464.13;;;7.44;100.00
10978;BME280;5542;48.272;10.794;2023-05-03T06:33:23;96465.50;;;7.40;100.00
10978;BME280;5542;48.272;10.794;2023-05-03T06:35:49;96470.72;;;7.40;100.00
10978;BME280;5542;48.272;10.794;2023-05-03T06:38:16;96466.56;;;7.46;100.00
10978;BME280;5542;48.272;10.794;2023-05-03T06:40:43;96475.56;;;7.36;100.00
10978;BME280;5542;48.272;10.794;2023-05-03T06:43:10;96478.00;;;7.44;100.00
10978;BME280;5542;48.272;10.794;2023-05-03T06:45:37;96480.34;;;7.33;100.00
10978;BME280;5542;48.272;10.794;2023-05-03T06:48:04;96483.41;;;7.36;100.00
10978;BME280;5542;48.272;10.794;2023-05-03T06:50:33;96484.63;;;7.40;100.00
10978;BME280;5542;48.272;10.794;2023-05-03T06:53:00;96479.88;;;7.51;100.00
10978;BME280;5542;48.272;10.794;2023-05-03T06:55:26;96481.06;;;7.48;100.00
10978;BME280;5542;48.272;10.794;2023-05-03T06:57:53;96482.34;;;7.59;100.00
10978;BME280;5542;48.272;10.794;2023-05-03T07:00:20;96481.50;;;7.52;100.00
10978;BME280;5542;48.272;10.794;2023-05-03T07:02:47;96487.66;;;7.44;100.00
10978;BME280;5542;48.272;10.794;2023-05-03T07:05:14;96490.91;;;7.46;100.00
10978;BME280;5542;48.272;10.794;2023-05-03T07:07:42;96488.09;;;7.48;100.00
10978;BME280;5542;48.272;10.794;2023-05-03T07:10:09;96481.16;;;7.61;100.00
10978;BME280;5542;48.272;10.794;2023-05-03T07:12:36;96482.09;;;7.82;100.00
10978;BME280;5542;48.272;10.794;2023-05-03T07:15:03;96471.63;;;7.82;100.00
10978;BME280;5542;48.272;10.794;2023-05-03T07:17:30;96470.94;;;7.73;100.00
10978;BME280;5542;48.272;10.794;2023-05-03T07:19:56;96469.00;;;7.82;100.00
10978;BME280;5542;48.272;10.794;2023-05-03T07:22:23;96466.66;;;7.93;100.00
10978;BME280;5542;48.272;10.794;2023-05-03T07:24:51;96459.22;;;7.97;100.00
10978;BME280;5542;48.272;10.794;2023-05-03T07:27:19;96466.03;;;7.91;100.00
10978;BME280;5542;48.272;10.794;2023-05-03T07:29:45;96464.06;;;8.00;100.00
10978;BME280;5542;48.272;10.794;2023-05-03T07:32:12;96459.44;;;8.02;100.00
10978;BME280;5542;48.272;10.794;2023-05-03T07:34:39;96461.94;;;8.17;100.00
10978;BME280;5542;48.272;10.794;2023-05-03T07:37:05;96460.72;;;8.13;100.00
10978;BME280;5542;48.272;10.794;2023-05-03T07:39:32;96459.78;;;8.27;100.00
10978;BME280;5542;48.272;10.794;2023-05-03T07:42:00;96453.09;;;8.25;100.00
10978;BME280;5542;48.272;10.794;2023-05-03T07:44:26;96452.31;;;8.31;100.00
10978;BME280;5542;48.272;10.794;2023-05-03T07:46:53;96454.09;;;8.17;100.00
10978;BME280;5542;48.272;10.794;2023-05-03T07:49:19;96450.47;;;8.18;100.00
10978;BME280;5542;48.272;10.794;2023-05-03T07:51:46;96454.25;;;8.09;100.00
10978;BME280;5542;48.272;10.794;2023-05-03T07:54:13;96450.97;;;8.00;100.00
10978;BME280;5542;48.272;10.794;2023-05-03T07:56:39;96451.56;;;8.02;100.00
10978;BME280;5542;48.272;10.794;2023-05-03T07:59:07;96451.06;;;8.20;100.00
10978;BME280;5542;48.272;10.794;2023-05-03T08:01:34;96455.34;;;8.28;100.00
10978;BME280;5542;48.272;10.794;2023-05-03T08:04:00;96452.91;;;8.26;100.00
10978;BME280;5542;48.272;10.794;2023-05-03T08:06:27;96450.69;;;8.23;100.00
10978;BME280;5542;48.272;10.794;2023-05-03T08:08:54;96456.53;;;8.25;100.00
10978;BME280;5542;48.272;10.794;2023-05-03T08:11:20;96449.88;;;8.29;100.00
10978;BME280;5542;48.272;10.794;2023-05-03T08:13:47;96459.19;;;8.32;100.00
10978;BME280;5542;48.272;10.794;2023-05-03T08:16:15;96453.84;;;8.53;100.00
10978;BME280;5542;48.272;10.794;2023-05-03T08:18:41;96449.84;;;8.70;100.00
10978;BME280;5542;48.272;10.794;2023-05-03T08:21:08;96453.88;;;8.60;100.00
10978;BME280;5542;48.272;10.794;2023-05-03T08:23:36;96451.03;;;8.61;100.00
10978;BME280;5542;48.272;10.794;2023-05-03T08:26:06;96454.69;;;8.67;100.00
10978;BME280;5542;48.272;10.794;2023-05-03T08:28:33;96457.94;;;8.69;100.00
10978;BME280;5542;48.272;10.794;2023-05-03T08:31:00;96462.41;;;8.88;100.00
10978;BME280;5542;48.272;10.794;2023-05-03T08:33:30;96460.75;;;8.87;100.00
10978;BME280;5542;48.272;10.794;2023-05-03T08:35:56;96462.00;;;8.85;100.00
10978;BME280;5542;48.272;10.794;2023-05-03T08:38:23;96456.91;;;8.77;100.00
10978;BME280;5542;48.272;10.794;2023-05-03T08:40:53;96451.47;;;8.71;100.00
10978;BME280;5542;48.272;10.794;2023-05-03T08:43:21;96451.25;;;8.73;100.00
10978;BME280;5542;48.272;10.794;2023-05-03T08:45:49;96451.50;;;8.85;100.00
10978;BME280;5542;48.272;10.794;2023-05-03T08:48:16;96444.88;;;9.02;100.00
10978;BME280;5542;48.272;10.794;2023-05-03T08:50:45;96441.66;;;9.27;100.00
10978;BME280;5542;48.272;10.794;2023-05-03T08:53:11;96448.69;;;9.33;100.00
10978;BME280;5542;48.272;10.794;2023-05-03T08:55:38;96452.94;;;9.14;100.00
10978;BME280;5542;48.272;10.794;2023-05-03T08:58:07;96450.53;;;9.12;100.00
10978;BME280;5542;48.272;10.794;2023-05-03T09:00:37;96454.97;;;9.12;100.00
10978;BME280;5542;48.272;10.794;2023-05-03T09:03:06;96453.75;;;9.14;100.00
10978;BME280;5542;48.272;10.794;2023-05-03T09:05:33;96449.91;;;9.17;100.00
10978;BME280;5542;48.272;10.794;2023-05-03T09:08:05;96459.22;;;9.26;100.00
10978;BME280;5542;48.272;10.794;2023-05-03T09:10:35;96465.88;;;9.22;100.00
10978;BME280;5542;48.272;10.794;2023-05-03T09:13:02;96456.78;;;9.31;100.00
10978;BME280;5542;48.272;10.794;2023-05-03T09:15:29;96461.63;;;9.41;100.00
10978;BME280;5542;48.272;10.794;2023-05-03T09:18:09;96462.25;;;9.36;100.00
10978;BME280;5542;48.272;10.794;2023-05-03T09:20:38;96466.06;;;9.60;100.00
10978;BME280;5542;48.272;10.794;2023-05-03T09:23:07;96459.97;;;9.66;100.00
10978;BME280;5542;48.272;10.794;2023-05-03T09:25:41;96469.28;;;9.75;99.40
10978;BME280;5542;48.272;10.794;2023-05-03T09:28:08;96463.59;;;9.85;97.25
10978;BME280;5542;48.272;10.794;2023-05-03T09:30:34;96462.00;;;9.71;99.27
10978;BME280;5542;48.272;10.794;2023-05-03T09:33:01;96463.41;;;9.80;97.86
10978;BME280;5542;48.272;10.794;2023-05-03T09:35:28;96467.25;;;9.71;98.18
10978;BME280;5542;48.272;10.794;2023-05-03T09:37:56;96463.63;;;9.79;98.85
10978;BME280;5542;48.272;10.794;2023-05-03T09:40:24;96462.75;;;9.91;100.00
10978;BME280;5542;48.272;10.794;2023-05-03T09:43:04;96454.69;;;9.86;99.34
10978;BME280;5542;48.272;10.794;2023-05-03T09:45:31;96453.47;;;9.82;99.86
10978;BME280;5542;48.272;10.794;2023-05-03T09:47:59;96459.53;;;9.89;100.00
10978;BME280;5542;48.272;10.794;2023-05-03T09:50:27;96463.13;;;10.08;99.41
10978;BME280;5542;48.272;10.794;2023-05-03T09:52:54;96458.47;;;10.10;98.45
10978;BME280;5542;48.272;10.794;2023-05-03T09:55:24;96463.09;;;10.28;94.78
10978;BME280;5542;48.272;10.794;2023-05-03T09:57:53;96464.72;;;10.16;95.38
10978;BME280;5542;48.272;10.794;2023-05-03T10:00:20;96472.00;;;10.14;97.42
10978;BME280;5542;48.272;10.794;2023-05-03T10:02:49;96460.66;;;10.33;95.67
10978;BME280;5542;48.272;10.794;2023-05-03T10:05:20;96468.72;;;10.38;95.24
10978;BME280;5542;48.272;10.794;2023-05-03T10:07:49;96464.38;;;10.64;92.72
10978;BME280;5542;48.272;10.794;2023-05-03T10:10:18;96462.44;;;10.77;91.14
10978;BME280;5542;48.272;10.794;2023-05-03T10:12:47;96457.66;;;10.68;92.57
10978;BME280;5542;48.272;10.794;2023-05-03T10:15:18;96458.13;;;10.90;90.98
10978;BME280;5542;48.272;10.794;2023-05-03T10:17:48;96457.44;;;11.01;91.39
10978;BME280;5542;48.272;10.794;2023-05-03T10:20:24;96458.63;;;11.12;89.15
10978;BME280;5542;48.272;10.794;2023-05-03T10:23:09;96456.97;;;11.11;89.31
10978;BME280;5542;48.272;10.794;2023-05-03T10:25:37;96452.16;;;11.33;87.60
10978;BME280;5542;48.272;10.794;2023-05-03T10:28:06;96456.63;;;11.32;85.60
10978;BME280;5542;48.272;10.794;2023-05-03T10:30:34;96458.84;;;11.35;85.21
10978;BME280;5542;48.272;10.794;2023-05-03T10:33:28;96468.34;;;11.11;86.30
10978;BME280;5542;48.272;10.794;2023-05-03T10:35:56;96458.72;;;11.23;88.64
10978;BME280;5542;48.272;10.794;2023-05-03T10:38:26;96449.28;;;11.41;86.45
10978;BME280;5542;48.272;10.794;2023-05-03T10:40:53;96456.31;;;11.47;85.97
10978;BME280;5542;48.272;10.794;2023-05-03T10:43:42;96449.94;;;11.79;84.55
10978;BME280;5542;48.272;10.794;2023-05-03T10:46:29;96449.31;;;12.02;83.76
10978;BME280;5542;48.272;10.794;2023-05-03T10:49:17;96454.00;;;12.00;83.08
10978;BME280;5542;48.272;10.794;2023-05-03T10:51:44;96453.72;;;12.09;80.41
10978;BME280;5542;48.272;10.794;2023-05-03T10:54:11;96453.03;;;11.95;81.29
10978;BME280;5542;48.272;10.794;2023-05-03T10:56:47;96459.66;;;12.04;82.75
10978;BME280;5542;48.272;10.794;2023-05-03T10:59:15;96460.00;;;11.89;82.31
10978;BME280;5542;48.272;10.794;2023-05-03T11:01:43;96452.97;;;11.83;83.96
10978;BME280;5542;48.272;10.794;2023-05-03T11:04:12;96453.78;;;11.84;82.37
10978;BME280;5542;48.272;10.794;2023-05-03T11:06:41;96447.63;;;11.90;82.83
10978;BME280;5542;48.272;10.794;2023-05-03T11:09:10;96436.66;;;11.93;82.38
10978;BME280;5542;48.272;10.794;2023-05-03T11:11:40;96438.19;;;12.19;80.96
10978;BME280;5542;48.272;10.794;2023-05-03T11:14:07;96439.19;;;12.54;80.79
10978;BME280;5542;48.272;10.794;2023-05-03T11:16:35;96443.34;;;12.92;76.75
10978;BME280;5542;48.272;10.794;2023-05-03T11:19:05;96430.06;;;13.11;77.73
10978;BME280;5542;48.272;10.794;2023-05-03T11:21:31;96436.25;;;13.04;73.90
10978;BME280;5542;48.272;10.794;2023-05-03T11:23:58;96435.34;;;13.11;76.34
10978;BME280;5542;48.272;10.794;2023-05-03T11:26:24;96425.13;;;13.14;77.03
10978;BME280;5542;48.272;10.794;2023-05-03T11:28:52;96437.41;;;13.08;75.28
10978;BME280;5542;48.272;10.794;2023-05-03T11:31:19;96424.84;;;13.34;74.21
10978;BME280;5542;48.272;10.794;2023-05-03T11:33:48;96424.16;;;13.27;74.00
10978;BME280;5542;48.272;10.794;2023-05-03T11:36:15;96432.97;;;13.21;74.88
10978;BME280;5542;48.272;10.794;2023-05-03T11:38:41;96421.00;;;13.18;76.82
10978;BME280;5542;48.272;10.794;2023-05-03T11:41:12;96425.66;;;13.35;76.57
10978;BME280;5542;48.272;10.794;2023-05-03T11:43:41;96422.34;;;13.39;74.72
10978;BME280;5542;48.272;10.794;2023-05-03T11:46:08;96415.19;;;13.51;75.37
10978;BME280;5542;48.272;10.794;2023-05-03T11:48:35;96418.44;;;13.53;74.16
10978;BME280;5542;48.272;10.794;2023-05-03T11:51:07;96427.38;;;13.76;74.37
10978;BME280;5542;48.272;10.794;2023-05-03T11:53:36;96418.28;;;14.07;74.53
10978;BME280;5542;48.272;10.794;2023-05-03T11:56:06;96421.38;;;14.04;71.04
10978;BME280;5542;48.272;10.794;2023-05-03T11:58:33;96416.19;;;14.09;70.39
10978;BME280;5542;48.272;10.794;2023-05-03T12:00:59;96419.28;;;14.18;70.22
10978;BME280;5542;48.272;10.794;2023-05-03T12:03:27;96414.31;;;14.21;65.61
10978;BME280;5542;48.272;10.794;2023-05-03T12:05:54;96416.63;;;14.18;64.84
10978;BME280;5542;48.272;10.794;2023-05-03T12:08:27;96407.75;;;14.24;64.43
10978;BME280;5542;48.272;10.794;2023-05-03T12:10:54;96414.34;;;14.09;64.86
10978;BME280;5542;48.272;10.794;2023-05-03T12:13:27;96412.91;;;14.30;66.59
10978;BME280;5542;48.272;10.794;2023-05-03T12:15:56;96407.47;;;14.37;64.90
10978;BME280;5542;48.272;10.794;2023-05-03T12:18:23;96406.69;;;14.48;62.73
10978;BME280;5542;48.272;10.794;2023-05-03T12:20:54;96403.78;;;14.38;64.70
10978;BME280;5542;48.272;10.794;2023-05-03T12:23:24;96401.44;;;14.25;63.72
10978;BME280;5542;48.272;10.794;2023-05-03T12:25:51;96397.09;;;14.47;66.33
10978;BME280;5542;48.272;10.794;2023-05-03T12:28:17;96397.78;;;14.83;61.68
10978;BME280;5542;48.272;10.794;2023-05-03T12:30:45;96396.41;;;14.80;60.95
10978;BME280;5542;48.272;10.794;2023-05-03T12:33:12;96394.25;;;14.94;63.85
10978;BME280;5542;48.272;10.794;2023-05-03T12:35:39;96402.19;;;14.94;62.01
10978;BME280;5542;48.272;10.794;2023-05-03T12:38:06;96395.06;;;14.95;62.61
10978;BME280;5542;48.272;10.794;2023-05-03T12:40:34;96383.03;;;14.87;60.11
10978;BME280;5542;48.272;10.794;2023-05-03T12:43:01;96386.66;;;15.15;60.99
10978;BME280;5542;48.272;10.794;2023-05-03T12:45:28;96373.78;;;15.23;59.73
10978;BME280;5542;48.272;10.794;2023-05-03T12:47:56;96367.06;;;15.16;60.62
10978;BME280;5542;48.272;10.794;2023-05-03T12:50:22;96371.88;;;15.19;60.11
10978;BME280;5542;48.272;10.794;2023-05-03T12:52:49;96372.69;;;15.02;60.63
10978;BME280;5542;48.272;10.794;2023-05-03T12:55:16;96366.25;;;14.98;60.36
10978;BME280;5542;48.272;10.794;2023-05-03T12:57:44;96360.31;;;15.25;59.79
10978;BME280;5542;48.272;10.794;2023-05-03T13:00:12;96356.63;;;15.26;61.61
10978;BME280;5542;48.272;10.794;2023-05-03T13:02:38;96358.78;;;15.29;58.34
10978;BME280;5542;48.272;10.794;2023-05-03T13:05:05;96348.75;;;15.48;57.74
10978;BME280;5542;48.272;10.794;2023-05-03T13:07:33;96348.56;;;15.54;57.34